Time;durP1;ratioP1;P1;durP2;ratioP2;P2;SDS_P1;SDS_P2;PMS_P1;PMS_P2;Temp;Humidity;BMP_temperature;BMP_pressure;BME280_temperature;BME280_humidity;BME280_pressure;Samples;Min_cycle;Max_cycle;Signal;HPM_P1;HPM_P2
2021/03/14 00:03:25;;;;;;;4.88;1.70;;;5.00;99.90;;;;;;12544230;28;20496;-85
2021/03/14 00:09:27;;;;;;;3.63;1.70;;;5.10;99.90;;;;;;12541562;28;20060;-84
2021/03/14 00:15:28;;;;;;;13.18;2.63;;;5.10;99.90;;;;;;12541101;28;20416;-85
2021/03/14 00:21:46;;;;;;;8.15;2.08;;;5.10;99.90;;;;;;12543120;28;20135;-86
2021/03/14 00:27:48;;;;;;;14.13;2.80;;;5.00;99.90;;;;;;12549999;28;20131;-86
2021/03/14 00:33:49;;;;;;;8.40;2.38;;;5.00;99.90;;;;;;12541829;28;20190;-85
2021/03/14 00:39:51;;;;;;;6.18;1.88;;;5.10;99.90;;;;;;12547191;28;20063;-85
2021/03/14 00:45:52;;;;;;;7.82;2.17;;;5.20;99.90;;;;;;12556521;28;20044;-85
2021/03/14 00:52:09;;;;;;;7.53;2.53;;;5.10;99.90;;;;;;12546646;28;20036;-85
2021/03/14 00:58:11;;;;;;;7.88;2.08;;;5.20;99.90;;;;;;12532502;28;20131;-85
2021/03/14 01:04:12;;;;;;;8.60;2.42;;;5.20;99.90;;;;;;12558215;28;20037;-85
2021/03/14 01:10:13;;;;;;;8.90;2.05;;;5.30;99.90;;;;;;12535595;28;20083;-85
2021/03/14 01:16:15;;;;;;;5.97;1.88;;;5.20;99.90;;;;;;12535584;28;20059;-85
2021/03/14 01:22:26;;;;;;;9.77;2.15;;;5.30;99.90;;;;;;12547155;28;20390;-85
2021/03/14 01:28:29;;;;;;;5.72;2.17;;;5.30;99.90;;;;;;12546229;28;20172;-85
2021/03/14 01:34:31;;;;;;;10.15;2.05;;;5.30;99.90;;;;;;12548686;28;20194;-85
2021/03/14 01:40:32;;;;;;;14.15;2.25;;;5.30;99.90;;;;;;12568229;28;20801;-84
2021/03/14 01:46:34;;;;;;;8.02;2.08;;;5.40;99.90;;;;;;12553644;28;20083;-85
2021/03/14 01:52:50;;;;;;;11.80;2.50;;;5.40;99.90;;;;;;12542600;28;20036;-84
2021/03/14 01:58:51;;;;;;;13.57;2.50;;;5.50;99.90;;;;;;12565295;28;20074;-85
2021/03/14 02:04:53;;;;;;;11.07;2.30;;;5.40;99.90;;;;;;12605778;28;20044;-84
2021/03/14 02:10:55;;;;;;;8.90;2.42;;;5.40;99.90;;;;;;12604060;28;20039;-84
2021/03/14 02:16:58;;;;;;;10.30;2.22;;;5.50;99.90;;;;;;12621814;28;20147;-84
2021/03/14 02:23:16;;;;;;;6.88;2.67;;;5.50;99.90;;;;;;12615433;28;20040;-85
2021/03/14 02:29:21;;;;;;;7.93;2.63;;;5.40;99.90;;;;;;12604362;28;20540;-85
2021/03/14 02:35:24;;;;;;;6.68;1.90;;;5.50;99.90;;;;;;12591307;28;20048;-84
2021/03/14 02:41:26;;;;;;;9.23;2.85;;;5.50;99.90;;;;;;12592717;28;20552;-84
2021/03/14 02:47:28;;;;;;;12.18;2.33;;;5.50;99.90;;;;;;12606092;28;20151;-84
2021/03/14 02:53:38;;;;;;;6.35;1.63;;;5.50;99.90;;;;;;12602587;28;20035;-86
2021/03/14 02:59:41;;;;;;;9.70;2.60;;;5.50;99.90;;;;;;12582936;28;20633;-84
2021/03/14 03:05:43;;;;;;;8.57;2.10;;;5.40;99.90;;;;;;12603891;28;20044;-84
2021/03/14 03:11:48;;;;;;;18.65;3.05;;;5.50;99.90;;;;;;12599048;28;20578;-84
2021/03/14 03:17:50;;;;;;;12.82;3.20;;;5.50;99.90;;;;;;12604305;28;20052;-85
2021/03/14 03:23:57;;;;;;;14.68;2.22;;;5.40;99.90;;;;;;12600390;28;20039;-84
2021/03/14 03:29:58;;;;;;;15.43;2.83;;;5.40;99.90;;;;;;12593408;28;20142;-85
2021/03/14 03:36:00;;;;;;;14.48;2.15;;;5.50;99.90;;;;;;12605646;28;20148;-84
2021/03/14 03:42:08;;;;;;;11.07;2.85;;;5.40;99.90;;;;;;12583016;28;20071;-85
2021/03/14 03:48:14;;;;;;;13.18;2.67;;;5.40;99.90;;;;;;12594010;28;20040;-84
2021/03/14 03:54:22;;;;;;;13.15;3.10;;;5.30;99.90;;;;;;12594025;28;20051;-84
2021/03/14 04:00:24;;;;;;;10.77;2.55;;;5.40;99.90;;;;;;12597980;28;20048;-85
2021/03/14 04:06:26;;;;;;;10.80;2.80;;;5.30;99.90;;;;;;12615293;28;20163;-84
2021/03/14 04:12:28;;;;;;;8.77;2.58;;;5.30;99.90;;;;;;12582837;28;20044;-84
2021/03/14 04:18:31;;;;;;;10.00;2.40;;;5.30;99.90;;;;;;12595932;28;20075;-84
2021/03/14 04:24:44;;;;;;;12.60;3.00;;;5.10;99.90;;;;;;12601432;28;20048;-85
2021/03/14 04:30:45;;;;;;;12.35;2.75;;;5.10;99.90;;;;;;12589148;28;20155;-84
2021/03/14 04:36:47;;;;;;;12.35;3.20;;;5.00;99.90;;;;;;12601833;28;20784;-85
2021/03/14 04:42:51;;;;;;;13.55;3.35;;;5.10;99.90;;;;;;12586700;28;20548;-84
2021/03/14 04:48:54;;;;;;;16.42;3.00;;;5.20;99.90;;;;;;12594340;28;20051;-84
2021/03/14 04:55:09;;;;;;;14.65;3.25;;;5.10;99.90;;;;;;12591647;28;20055;-85
2021/03/14 05:01:13;;;;;;;15.43;3.20;;;5.10;99.90;;;;;;12589300;28;20135;-84
2021/03/14 05:07:15;;;;;;;16.40;3.08;;;5.10;99.90;;;;;;12600688;28;20056;-84
2021/03/14 05:13:18;;;;;;;12.80;3.20;;;5.20;99.90;;;;;;12596958;28;20590;-85
2021/03/14 05:19:20;;;;;;;9.95;2.70;;;5.10;99.90;;;;;;12591688;28;20048;-85
2021/03/14 05:25:33;;;;;;;7.90;2.25;;;5.10;99.90;;;;;;12592208;28;20095;-84
2021/03/14 05:31:36;;;;;;;9.52;3.35;;;5.00;99.90;;;;;;12595285;28;20075;-85
2021/03/14 05:37:38;;;;;;;5.72;2.25;;;4.90;99.90;;;;;;12588094;28;21618;-85
2021/03/14 05:43:41;;;;;;;7.78;2.75;;;4.90;99.90;;;;;;12583890;28;20105;-84
2021/03/14 05:49:42;;;;;;;10.55;2.75;;;4.80;99.90;;;;;;12602366;28;20130;-85
2021/03/14 05:55:52;;;;;;;8.73;3.13;;;4.80;99.90;;;;;;12594735;28;20059;-85
2021/03/14 06:01:54;;;;;;;12.68;3.70;;;4.70;99.90;;;;;;12605326;28;20590;-86
2021/03/14 06:07:57;;;;;;;15.57;3.88;;;4.60;99.90;;;;;;12593692;28;20052;-87
2021/03/14 06:14:00;;;;;;;7.57;3.20;;;4.60;99.90;;;;;;12594833;28;20083;-85
2021/03/14 06:20:01;;;;;;;8.35;3.10;;;4.70;99.90;;;;;;12604957;28;20456;-86
2021/03/14 06:26:19;;;;;;;8.38;2.60;;;4.70;99.90;;;;;;12605524;28;20146;-86
2021/03/14 06:32:20;;;;;;;6.30;2.42;;;4.70;99.90;;;;;;12597647;28;20043;-86
2021/03/14 06:38:27;;;;;;;12.00;3.28;;;4.70;99.90;;;;;;12600635;28;20055;-85
2021/03/14 06:44:30;;;;;;;11.27;3.30;;;4.70;99.90;;;;;;12599533;28;20085;-87
2021/03/14 06:50:32;;;;;;;12.43;3.58;;;4.80;99.90;;;;;;12603786;28;20703;-86
2021/03/14 06:56:38;;;;;;;8.85;3.78;;;4.80;99.90;;;;;;12600529;28;20474;-85
2021/03/14 07:02:39;;;;;;;12.98;3.70;;;4.80;99.90;;;;;;12597141;28;20048;-85
2021/03/14 07:08:41;;;;;;;13.15;3.60;;;4.90;99.90;;;;;;12623407;28;20199;-85
2021/03/14 07:14:43;;;;;;;9.65;3.33;;;5.00;99.90;;;;;;12591081;28;20095;-86
2021/03/14 07:20:45;;;;;;;5.90;2.17;;;5.10;99.90;;;;;;12601044;28;20057;-86
2021/03/14 07:27:01;;;;;;;6.75;2.00;;;5.00;99.90;;;;;;12602219;28;20134;-85
2021/03/14 07:33:02;;;;;;;11.75;2.38;;;4.80;99.90;;;;;;12602215;28;20046;-86
2021/03/14 07:39:05;;;;;;;7.00;2.47;;;4.60;99.90;;;;;;12593573;28;20103;-84
2021/03/14 07:45:08;;;;;;;10.10;2.45;;;4.70;99.90;;;;;;12585616;28;20587;-84
2021/03/14 07:51:12;;;;;;;9.70;2.63;;;4.60;99.90;;;;;;12593637;28;20056;-85
2021/03/14 07:57:25;;;;;;;10.05;3.90;;;4.70;99.90;;;;;;12595023;28;20052;-85
2021/03/14 08:03:36;;;;;;;8.38;3.25;;;4.70;99.90;;;;;;12580814;28;20134;-86
2021/03/14 08:09:42;;;;;;;6.97;3.25;;;4.90;99.90;;;;;;12592077;28;20047;-86
2021/03/14 08:15:58;;;;;;;9.95;3.50;;;5.00;99.90;;;;;;12591068;28;20125;-85
2021/03/14 08:21:59;;;;;;;11.93;3.78;;;5.20;99.90;;;;;;12589127;28;20117;-85
2021/03/14 08:28:25;;;;;;;11.27;3.45;;;5.30;99.90;;;;;;12592597;28;20123;-85
2021/03/14 08:34:26;;;;;;;8.95;3.75;;;5.30;99.90;;;;;;12590474;28;20032;-85
2021/03/14 08:40:33;;;;;;;13.40;4.43;;;5.50;99.90;;;;;;12594423;28;20112;-85
2021/03/14 08:46:46;;;;;;;11.35;3.00;;;5.60;99.90;;;;;;12594905;28;20312;-86
2021/03/14 08:52:48;;;;;;;7.90;2.70;;;5.60;99.90;;;;;;12588577;28;20123;-85
2021/03/14 08:59:08;;;;;;;7.60;2.97;;;5.80;99.90;;;;;;12586635;28;20155;-86
2021/03/14 09:05:15;;;;;;;8.70;2.78;;;5.90;99.90;;;;;;12593075;28;20185;-85
2021/03/14 09:11:47;;;;;;;6.88;2.67;;;6.00;99.90;;;;;;12590781;28;20044;-85
2021/03/14 09:17:56;;;;;;;7.25;3.03;;;6.00;99.90;;;;;;12590752;28;20047;-85
2021/03/14 09:24:01;;;;;;;10.43;3.25;;;5.90;99.90;;;;;;12592438;28;20048;-85
2021/03/14 09:30:13;;;;;;;10.10;3.90;;;5.70;99.90;;;;;;12609424;28;20484;-85
2021/03/14 09:36:14;;;;;;;11.18;3.85;;;5.70;99.90;;;;;;12596901;28;20044;-85
2021/03/14 09:42:21;;;;;;;9.05;4.28;;;5.50;99.90;;;;;;12583318;28;20067;-85
2021/03/14 09:48:23;;;;;;;9.13;4.43;;;5.50;99.90;;;;;;12601631;28;20048;-86
2021/03/14 09:54:25;;;;;;;12.00;5.20;;;5.60;99.90;;;;;;12599512;28;20063;-86
2021/03/14 10:00:31;;;;;;;8.57;5.00;;;5.80;99.90;;;;;;12602574;28;20131;-86
2021/03/14 10:06:38;;;;;;;12.85;5.50;;;6.00;99.90;;;;;;12606015;28;20097;-86
2021/03/14 10:12:40;;;;;;;14.18;5.82;;;5.90;99.90;;;;;;12597505;28;20044;-86
2021/03/14 10:18:43;;;;;;;10.90;5.63;;;6.10;99.90;;;;;;12610333;28;20115;-86
2021/03/14 10:24:45;;;;;;;16.17;6.80;;;6.00;99.90;;;;;;12592130;28;20051;-86
2021/03/14 10:30:59;;;;;;;11.80;5.90;;;6.50;99.90;;;;;;12576020;28;20412;-86
2021/03/14 10:37:01;;;;;;;9.60;5.43;;;6.80;99.90;;;;;;12590716;28;20052;-86
2021/03/14 10:43:23;;;;;;;10.85;5.68;;;6.80;99.90;;;;;;12587854;28;20048;-85
2021/03/14 10:49:30;;;;;;;10.40;5.60;;;6.70;99.90;;;;;;12584879;28;20535;-85
2021/03/14 10:55:32;;;;;;;9.15;4.97;;;6.60;99.90;;;;;;12578479;28;20120;-86
2021/03/14 11:01:39;;;;;;;12.10;5.85;;;6.40;99.90;;;;;;12593886;28;20805;-85
2021/03/14 11:07:40;;;;;;;6.63;3.90;;;6.20;99.90;;;;;;12592047;28;20523;-85
2021/03/14 11:13:42;;;;;;;8.80;3.03;;;6.50;99.90;;;;;;12588405;28;20093;-86
2021/03/14 11:19:48;;;;;;;5.97;3.83;;;6.80;99.90;;;;;;12587311;28;20468;-85
2021/03/14 11:25:51;;;;;;;9.52;4.72;;;7.30;99.90;;;;;;12584873;28;20996;-85
2021/03/14 11:31:53;;;;;;;9.85;4.80;;;7.60;99.90;;;;;;12596310;28;20044;-85
2021/03/14 11:37:54;;;;;;;10.43;4.10;;;7.70;99.90;;;;;;12606953;28;20040;-85
2021/03/14 11:43:56;;;;;;;7.15;4.03;;;7.30;99.90;;;;;;12589300;28;20044;-86
2021/03/14 11:49:57;;;;;;;8.88;3.42;;;6.80;99.90;;;;;;12571206;28;20556;-85
2021/03/14 11:55:59;;;;;;;6.82;4.20;;;6.70;99.90;;;;;;12591488;28;20044;-86
2021/03/14 12:02:01;;;;;;;7.00;4.50;;;6.80;99.90;;;;;;12582572;28;20534;-85
2021/03/14 12:08:03;;;;;;;8.90;4.25;;;7.40;99.90;;;;;;12594684;28;20070;-86
2021/03/14 12:14:04;;;;;;;7.38;3.88;;;7.60;99.90;;;;;;12600308;28;20152;-86
2021/03/14 12:20:06;;;;;;;8.38;4.57;;;7.70;99.90;;;;;;12586972;28;20104;-85
2021/03/14 12:26:08;;;;;;;10.02;2.80;;;8.20;99.90;;;;;;12590259;28;20100;-85
2021/03/14 12:32:10;;;;;;;6.50;3.33;;;8.60;99.90;;;;;;12589926;28;20085;-85
2021/03/14 12:38:12;;;;;;;8.82;4.18;;;8.50;99.90;;;;;;12592703;28;20142;-85
2021/03/14 12:44:14;;;;;;;9.25;4.00;;;8.00;99.90;;;;;;12550256;28;20048;-85
2021/03/14 12:50:16;;;;;;;9.70;3.53;;;7.60;99.90;;;;;;12597856;28;20044;-85
2021/03/14 12:56:17;;;;;;;7.57;3.83;;;7.40;99.90;;;;;;12584906;28;20080;-85
2021/03/14 13:02:19;;;;;;;9.23;4.35;;;8.00;99.90;;;;;;12581325;28;20100;-85
2021/03/14 13:08:20;;;;;;;8.35;3.95;;;8.00;99.90;;;;;;12583925;28;20081;-86
2021/03/14 13:14:21;;;;;;;8.52;4.47;;;7.90;99.90;;;;;;12581854;28;20357;-86
2021/03/14 13:20:27;;;;;;;10.48;4.35;;;7.90;99.90;;;;;;12579696;28;20052;-85
2021/03/14 13:26:46;;;;;;;7.07;4.22;;;7.60;99.90;;;;;;12610694;28;20595;-85
2021/03/14 13:32:47;;;;;;;12.88;5.70;;;8.00;99.90;;;;;;12594638;28;20109;-86
2021/03/14 13:38:50;;;;;;;10.57;5.55;;;7.60;99.90;;;;;;12599172;28;20112;-85
2021/03/14 13:44:51;;;;;;;11.70;6.88;;;7.40;99.90;;;;;;12616668;28;20083;-85
2021/03/14 13:50:54;;;;;;;8.05;4.28;;;7.30;99.90;;;;;;12602611;28;20044;-85
2021/03/14 13:56:55;;;;;;;4.43;1.85;;;6.50;99.90;;;;;;12595577;28;20075;-85
2021/03/14 14:02:59;;;;;;;5.30;2.88;;;5.50;99.90;;;;;;12649911;28;20357;-88
2021/03/14 14:09:03;;;;;;;7.05;3.65;;;5.20;99.90;;;;;;12654951;28;20047;-89
2021/03/14 14:15:06;;;;;;;8.45;4.05;;;5.80;99.90;;;;;;12631004;28;20054;-90
2021/03/14 14:21:08;;;;;;;9.63;6.95;;;6.50;99.90;;;;;;12582316;28;20051;-90
2021/03/14 14:27:10;;;;;;;14.85;8.95;;;6.70;99.90;;;;;;12586786;28;20072;-89
2021/03/14 14:33:12;;;;;;;12.60;7.88;;;6.60;99.90;;;;;;12598069;28;20072;-87
2021/03/14 14:39:14;;;;;;;15.82;8.82;;;6.40;99.90;;;;;;12602786;28;20048;-87
2021/03/14 14:45:16;;;;;;;8.82;5.30;;;6.20;99.90;;;;;;12585739;28;20056;-89
2021/03/14 14:51:17;;;;;;;3.75;2.03;;;6.30;99.90;;;;;;12584311;28;20116;-88
2021/03/14 14:57:19;;;;;;;3.65;1.50;;;5.90;99.90;;;;;;12590763;28;20040;-90
2021/03/14 15:03:21;;;;;;;3.67;2.00;;;5.80;99.90;;;;;;12591159;28;20081;-89
2021/03/14 15:09:23;;;;;;;4.90;2.70;;;6.00;99.90;;;;;;12599234;28;20052;-89
2021/03/14 15:15:25;;;;;;;5.60;3.42;;;6.00;99.90;;;;;;12585394;28;20036;-88
2021/03/14 15:21:27;;;;;;;5.57;3.05;;;5.90;99.90;;;;;;12597212;28;20576;-89
2021/03/14 15:27:28;;;;;;;4.55;2.80;;;6.00;99.90;;;;;;12595523;28;20120;-88
2021/03/14 15:33:29;;;;;;;4.72;2.95;;;5.90;99.90;;;;;;12596537;28;20116;-87
2021/03/14 15:39:31;;;;;;;2.85;1.70;;;5.80;99.90;;;;;;12596957;28;20556;-88
2021/03/14 15:45:32;;;;;;;2.35;1.00;;;6.00;99.90;;;;;;12591337;28;20083;-86
2021/03/14 15:51:34;;;;;;;5.53;1.52;;;6.10;99.90;;;;;;12594873;28;20073;-86
2021/03/14 15:57:36;;;;;;;5.68;1.90;;;6.20;99.90;;;;;;12586864;28;20123;-86
2021/03/14 16:03:38;;;;;;;2.40;1.20;;;6.40;99.90;;;;;;12595561;28;20115;-88
2021/03/14 16:09:40;;;;;;;1.40;0.50;;;6.20;99.90;;;;;;12589897;28;20476;-86
2021/03/14 16:15:41;;;;;;;1.73;0.70;;;6.30;99.90;;;;;;12587087;28;20146;-88
2021/03/14 16:21:43;;;;;;;2.40;0.80;;;6.50;99.90;;;;;;12581492;28;20560;-87
2021/03/14 16:27:44;;;;;;;5.25;1.20;;;6.60;99.90;;;;;;12584056;28;20044;-86
2021/03/14 16:33:48;;;;;;;3.40;0.90;;;6.60;99.90;;;;;;12583400;28;20040;-86
2021/03/14 16:39:50;;;;;;;3.17;0.90;;;6.20;99.90;;;;;;12581470;28;20180;-87
2021/03/14 16:45:57;;;;;;;2.75;1.10;;;5.90;99.90;;;;;;12583194;28;20044;-85
2021/03/14 16:51:58;;;;;;;3.47;1.15;;;5.60;99.90;;;;;;12584799;28;20130;-86
2021/03/14 16:58:00;;;;;;;4.65;1.42;;;5.60;99.90;;;;;;12594202;28;20048;-86
2021/03/14 17:04:10;;;;;;;3.20;1.30;;;5.70;99.90;;;;;;12585027;28;20696;-86
2021/03/14 17:10:12;;;;;;;5.13;1.30;;;5.70;99.90;;;;;;12576421;28;20163;-87
2021/03/14 17:16:13;;;;;;;3.25;1.30;;;5.80;99.90;;;;;;12592199;28;20101;-86
2021/03/14 17:22:15;;;;;;;2.92;1.25;;;5.80;99.90;;;;;;12552746;28;20048;-86
2021/03/14 17:28:17;;;;;;;4.65;1.80;;;5.60;99.90;;;;;;12550867;28;20096;-87
2021/03/14 17:34:34;;;;;;;7.47;2.20;;;5.40;99.90;;;;;;12591824;28;20135;-86
2021/03/14 17:40:35;;;;;;;5.30;1.73;;;5.20;99.90;;;;;;12589794;28;20067;-86
2021/03/14 17:46:36;;;;;;;4.28;1.88;;;5.10;99.90;;;;;;12568215;28;20135;-87
2021/03/14 17:52:38;;;;;;;4.57;1.75;;;5.10;99.90;;;;;;12575560;28;20481;-86
2021/03/14 17:58:39;;;;;;;4.53;1.42;;;4.90;99.90;;;;;;12571868;28;20098;-86
2021/03/14 18:04:54;;;;;;;5.10;1.93;;;4.80;99.90;;;;;;12574156;28;20414;-86
2021/03/14 18:10:56;;;;;;;3.42;1.38;;;4.90;99.90;;;;;;12577339;28;20102;-86
2021/03/14 18:16:57;;;;;;;6.15;1.25;;;5.20;99.90;;;;;;12558658;28;20136;-86
2021/03/14 18:22:58;;;;;;;8.75;1.92;;;5.30;99.90;;;;;;12571482;28;20480;-85
2021/03/14 18:29:00;;;;;;;6.25;1.48;;;5.30;99.90;;;;;;12581007;28;20550;-87
2021/03/14 18:35:16;;;;;;;5.88;1.50;;;5.30;99.90;;;;;;12581836;28;20041;-85
2021/03/14 18:41:17;;;;;;;6.43;0.90;;;5.50;99.90;;;;;;12550357;28;20062;-86
2021/03/14 18:47:19;;;;;;;5.15;1.80;;;5.10;99.90;;;;;;12575737;28;20565;-87
2021/03/14 18:53:21;;;;;;;5.85;1.80;;;5.00;99.90;;;;;;12579891;28;20072;-88
2021/03/14 18:59:23;;;;;;;4.50;1.40;;;4.80;99.90;;;;;;12585160;28;20280;-88
2021/03/14 19:05:39;;;;;;;6.65;1.83;;;4.90;99.90;;;;;;12588639;28;20122;-88
2021/03/14 19:11:40;;;;;;;6.20;2.10;;;4.60;99.90;;;;;;12590256;28;20044;-87
2021/03/14 19:17:41;;;;;;;7.03;2.25;;;4.50;99.90;;;;;;12591430;28;20048;-87
2021/03/14 19:23:44;;;;;;;9.82;2.10;;;4.70;99.90;;;;;;12592714;28;20044;-86
2021/03/14 19:29:46;;;;;;;9.02;1.98;;;4.90;99.90;;;;;;12589888;28;20075;-86
2021/03/14 19:36:01;;;;;;;8.30;1.98;;;5.10;99.90;;;;;;12585438;28;20046;-87
2021/03/14 19:42:03;;;;;;;11.02;1.80;;;5.20;99.90;;;;;;12587000;28;20574;-86
2021/03/14 19:48:05;;;;;;;7.22;1.67;;;5.30;99.90;;;;;;12581432;28;20134;-86
2021/03/14 19:54:07;;;;;;;13.65;1.88;;;5.40;99.90;;;;;;12579503;28;20048;-85
2021/03/14 20:00:09;;;;;;;8.23;1.58;;;5.30;99.90;;;;;;12584602;28;20052;-85
2021/03/14 20:06:25;;;;;;;10.25;1.65;;;5.40;99.90;;;;;;12583327;28;20043;-85
2021/03/14 20:12:26;;;;;;;9.18;1.65;;;5.20;99.90;;;;;;12582781;28;20097;-85
2021/03/14 20:18:28;;;;;;;10.88;1.80;;;5.30;99.90;;;;;;12597860;28;20465;-86
2021/03/14 20:24:30;;;;;;;9.50;2.10;;;5.00;99.90;;;;;;12574203;28;20385;-86
2021/03/14 20:30:32;;;;;;;17.10;2.97;;;4.90;99.90;;;;;;12573904;28;20119;-86
2021/03/14 20:36:49;;;;;;;10.10;1.98;;;5.00;99.90;;;;;;12600795;28;20044;-86
2021/03/14 20:42:51;;;;;;;9.32;1.98;;;4.90;99.90;;;;;;12578486;28;20622;-87
2021/03/14 20:48:52;;;;;;;9.05;1.85;;;4.80;99.90;;;;;;12576012;28;20327;-86
2021/03/14 20:54:53;;;;;;;13.90;2.70;;;4.50;99.90;;;;;;12561116;28;20480;-86
2021/03/14 21:00:55;;;;;;;13.18;2.53;;;4.20;99.90;;;;;;12585831;28;20050;-85
2021/03/14 21:07:10;;;;;;;14.80;3.20;;;4.20;99.90;;;;;;12586398;28;20064;-86
2021/03/14 21:13:13;;;;;;;16.92;3.00;;;4.10;99.90;;;;;;12572012;28;20048;-87
2021/03/14 21:19:14;;;;;;;10.50;2.53;;;4.20;99.90;;;;;;12585192;28;20139;-86
2021/03/14 21:25:16;;;;;;;12.65;2.80;;;4.10;99.90;;;;;;12574347;28;20162;-87
2021/03/14 21:31:17;;;;;;;13.07;2.65;;;4.20;99.90;;;;;;12579429;28;20465;-86
2021/03/14 21:37:34;;;;;;;13.82;2.78;;;4.10;99.90;;;;;;12584422;28;20056;-85
2021/03/14 21:43:35;;;;;;;11.93;2.72;;;3.90;99.90;;;;;;12587586;28;20102;-87
2021/03/14 21:49:37;;;;;;;8.52;2.58;;;3.90;99.90;;;;;;12599906;28;20093;-87
2021/03/14 21:55:38;;;;;;;15.32;3.53;;;3.90;99.90;;;;;;12580957;28;20047;-86
2021/03/14 22:01:39;;;;;;;15.63;3.33;;;4.00;99.90;;;;;;12600705;28;20059;-86
2021/03/14 22:07:56;;;;;;;13.93;3.30;;;4.00;99.90;;;;;;12597648;28;20047;-86
2021/03/14 22:13:58;;;;;;;14.15;3.70;;;4.10;99.90;;;;;;12602141;28;20083;-86
2021/03/14 22:19:59;;;;;;;13.40;2.88;;;4.20;99.90;;;;;;12591108;28;20549;-86
2021/03/14 22:26:02;;;;;;;14.98;3.13;;;4.30;99.90;;;;;;12588909;28;20032;-87
2021/03/14 22:32:04;;;;;;;13.90;3.33;;;4.40;99.90;;;;;;12587900;28;20076;-87
2021/03/14 22:38:22;;;;;;;12.52;3.65;;;4.40;99.90;;;;;;12595474;28;20048;-86
2021/03/14 22:44:23;;;;;;;13.07;2.83;;;4.30;99.90;;;;;;12583833;28;20040;-86
2021/03/14 22:50:32;;;;;;;11.23;3.10;;;4.30;99.90;;;;;;12587753;28;20048;-87
2021/03/14 22:56:33;;;;;;;11.10;3.05;;;4.30;99.90;;;;;;12585872;28;20044;-85
2021/03/14 23:02:35;;;;;;;9.38;2.63;;;4.30;99.90;;;;;;12605404;28;21000;-86
2021/03/14 23:08:46;;;;;;;11.18;2.85;;;4.40;99.90;;;;;;12591947;28;20126;-86
2021/03/14 23:14:47;;;;;;;9.27;2.42;;;4.50;99.90;;;;;;12583720;28;20044;-86
2021/03/14 23:20:49;;;;;;;14.20;3.45;;;4.50;99.90;;;;;;12608675;28;20198;-86
2021/03/14 23:26:51;;;;;;;12.80;3.10;;;4.60;99.90;;;;;;12592944;28;20060;-86
2021/03/14 23:32:52;;;;;;;8.70;3.20;;;4.70;99.90;;;;;;12591944;28;20540;-84
2021/03/14 23:39:07;;;;;;;8.63;3.78;;;4.80;99.90;;;;;;12581763;28;20052;-87
2021/03/14 23:45:09;;;;;;;8.15;3.17;;;4.60;99.90;;;;;;12584141;28;20068;-89
2021/03/14 23:51:12;;;;;;;9.48;2.90;;;4.50;99.90;;;;;;12589429;28;20504;-88
2021/03/14 23:57:13;;;;;;;9.90;2.67;;;4.40;99.90;;;;;;12589532;28;20097;-88
